createdAt,value
2022-09-13T00:02:23.131Z,15.97
2022-09-13T00:04:50.934Z,15.84
2022-09-13T00:07:18.634Z,16.10
2022-09-13T00:09:46.412Z,15.95
2022-09-13T00:12:14.273Z,15.75
2022-09-13T00:14:41.662Z,15.79
2022-09-13T00:17:08.969Z,15.97
2022-09-13T00:19:36.688Z,16.10
2022-09-13T00:22:04.134Z,16.08
2022-09-13T00:24:31.684Z,15.91
2022-09-13T00:26:59.107Z,15.79
2022-09-13T00:29:27.065Z,15.74
2022-09-13T00:31:54.757Z,15.65
2022-09-13T00:34:22.206Z,15.67
2022-09-13T00:36:49.605Z,15.53
2022-09-13T00:39:17.020Z,15.55
2022-09-13T00:41:44.646Z,15.66
2022-09-13T00:44:30.808Z,15.89
2022-09-13T00:46:58.353Z,15.94
2022-09-13T00:49:36.483Z,15.99
2022-09-13T00:52:05.346Z,16.03
2022-09-13T00:54:41.112Z,16.07
2022-09-13T00:57:10.137Z,16.05
2022-09-13T00:59:38.879Z,16.14
2022-09-13T01:02:06.372Z,16.07
2022-09-13T01:04:34.614Z,16.04
2022-09-13T01:07:02.831Z,16.15
2022-09-13T01:09:33.438Z,16.22
2022-09-13T01:12:04.628Z,16.21
2022-09-13T01:14:32.332Z,16.31
2022-09-13T01:17:01.270Z,16.27
2022-09-13T01:19:30.471Z,16.30
2022-09-13T01:22:10.215Z,16.02
2022-09-13T01:24:41.452Z,16.02
2022-09-13T01:27:27.556Z,15.85
2022-09-13T01:30:13.863Z,15.74
2022-09-13T01:33:02.014Z,15.59
2022-09-13T01:35:38.670Z,15.73
2022-09-13T01:38:22.138Z,15.92
2022-09-13T01:41:07.323Z,16.00
2022-09-13T01:43:44.237Z,16.08
2022-09-13T01:46:15.106Z,15.92
2022-09-13T01:48:58.422Z,15.99
2022-09-13T01:51:27.928Z,15.91
2022-09-13T01:54:08.241Z,15.79
2022-09-13T01:56:35.684Z,15.74
2022-09-13T01:59:12.206Z,15.83
2022-09-13T02:01:41.062Z,15.70
2022-09-13T02:04:09.860Z,15.72
2022-09-13T02:06:39.071Z,15.98
2022-09-13T02:09:12.007Z,15.92
2022-09-13T02:11:40.337Z,15.95
2022-09-13T02:14:10.010Z,15.80
2022-09-13T02:16:42.081Z,15.97
2022-09-13T02:19:19.166Z,15.83
2022-09-13T02:21:48.108Z,15.88
2022-09-13T02:24:19.828Z,15.89
2022-09-13T02:26:47.438Z,15.95
2022-09-13T02:29:17.214Z,15.80
2022-09-13T02:31:56.997Z,15.74
2022-09-13T02:34:32.371Z,15.89
2022-09-13T02:36:59.866Z,15.87
2022-09-13T02:39:27.657Z,15.95
2022-09-13T02:42:14.006Z,15.66
2022-09-13T02:44:42.643Z,15.80
2022-09-13T02:47:23.165Z,15.91
2022-09-13T02:50:09.767Z,15.80
2022-09-13T02:52:48.761Z,15.64
2022-09-13T02:55:42.452Z,15.78
2022-09-13T02:58:11.516Z,15.86
2022-09-13T03:00:39.439Z,15.89
2022-09-13T03:03:07.538Z,15.88
2022-09-13T03:05:34.986Z,15.92
2022-09-13T03:08:02.574Z,15.95
2022-09-13T03:10:36.987Z,16.00
2022-09-13T03:13:35.011Z,16.01
2022-09-13T03:16:07.248Z,15.99
2022-09-13T03:18:46.649Z,15.95
2022-09-13T03:21:34.481Z,15.95
2022-09-13T03:24:11.202Z,15.99
2022-09-13T03:26:41.522Z,16.09
2022-09-13T03:29:20.062Z,15.99
2022-09-13T03:32:10.177Z,15.90
2022-09-13T03:34:57.206Z,16.07
2022-09-13T03:37:29.528Z,15.91
2022-09-13T03:39:58.038Z,15.96
2022-09-13T03:42:28.169Z,15.82
2022-09-13T03:44:55.932Z,15.75
2022-09-13T03:47:24.202Z,15.75
2022-09-13T03:49:52.095Z,15.98
2022-09-13T03:52:19.688Z,15.90
2022-09-13T03:54:46.985Z,15.97
2022-09-13T03:57:15.533Z,16.03
2022-09-13T03:59:46.627Z,16.07
2022-09-13T04:02:14.599Z,16.12
2022-09-13T04:04:42.304Z,16.05
2022-09-13T04:07:11.006Z,15.99
2022-09-13T04:09:38.684Z,15.94
2022-09-13T04:12:06.440Z,16.07
2022-09-13T04:14:33.843Z,15.96
2022-09-13T04:17:01.348Z,16.04
2022-09-13T04:19:29.046Z,16.19
2022-09-13T04:21:56.698Z,16.27
2022-09-13T04:24:25.062Z,16.29
2022-09-13T04:26:53.801Z,16.21
2022-09-13T04:29:21.624Z,16.46
2022-09-13T04:31:49.530Z,16.26
2022-09-13T04:34:18.615Z,16.37
2022-09-13T04:36:47.437Z,16.45
2022-09-13T04:39:15.319Z,16.62
2022-09-13T04:41:44.784Z,16.55
2022-09-13T04:44:12.519Z,16.54
2022-09-13T04:46:39.934Z,16.46
2022-09-13T04:49:07.407Z,16.24
2022-09-13T04:51:34.871Z,16.18
2022-09-13T04:54:02.886Z,16.15
2022-09-13T04:56:30.356Z,16.11
2022-09-13T04:58:58.360Z,16.03
2022-09-13T05:01:27.876Z,16.15
2022-09-13T05:03:55.866Z,16.15
2022-09-13T05:06:23.260Z,16.02
2022-09-13T05:08:52.394Z,16.04
2022-09-13T05:11:19.988Z,16.15
2022-09-13T05:13:53.243Z,15.81
2022-09-13T05:16:21.541Z,15.84
2022-09-13T05:18:49.192Z,16.00
2022-09-13T05:21:16.752Z,15.83
2022-09-13T05:23:44.580Z,15.92
2022-09-13T05:26:12.053Z,16.03
2022-09-13T05:28:39.474Z,16.04
2022-09-13T05:31:07.922Z,16.14
2022-09-13T05:33:36.975Z,16.12
2022-09-13T05:36:05.915Z,16.00
2022-09-13T05:38:33.868Z,15.97
2022-09-13T05:41:02.460Z,15.95
2022-09-13T05:43:30.792Z,15.96
2022-09-13T05:46:07.912Z,16.03
2022-09-13T05:48:35.961Z,15.92
2022-09-13T05:51:10.632Z,15.91
2022-09-13T05:53:40.024Z,15.82
2022-09-13T05:56:15.826Z,16.11
2022-09-13T05:58:45.773Z,16.02
2022-09-13T06:01:13.286Z,15.95
2022-09-13T06:03:40.831Z,15.97
2022-09-13T06:06:08.426Z,15.86
2022-09-13T06:08:36.062Z,15.94
2022-09-13T06:11:10.649Z,16.04
2022-09-13T06:13:38.978Z,15.99
2022-09-13T06:16:07.714Z,16.13
2022-09-13T06:18:36.075Z,16.01
2022-09-13T06:21:07.663Z,16.13
2022-09-13T06:23:35.800Z,16.11
2022-09-13T06:26:22.208Z,16.06
2022-09-13T06:28:54.035Z,16.21
2022-09-13T06:31:26.601Z,16.20
2022-09-13T06:33:58.133Z,16.22
2022-09-13T06:36:26.124Z,15.96
2022-09-13T06:38:57.915Z,16.04
2022-09-13T06:41:28.496Z,16.04
2022-09-13T06:43:57.743Z,15.68
2022-09-13T06:46:26.777Z,15.74
2022-09-13T06:48:54.355Z,15.83
2022-09-13T06:51:22.708Z,15.82
2022-09-13T06:53:50.516Z,15.88
2022-09-13T06:56:28.151Z,15.62
2022-09-13T06:58:58.947Z,15.99
2022-09-13T07:01:27.610Z,16.02
2022-09-13T07:03:55.981Z,16.06
2022-09-13T07:06:24.373Z,16.11
2022-09-13T07:08:53.327Z,16.17
2022-09-13T07:11:21.920Z,16.31
2022-09-13T07:13:53.799Z,16.20
2022-09-13T07:16:22.027Z,16.39
2022-09-13T07:18:53.507Z,16.36
2022-09-13T07:21:21.416Z,16.33
2022-09-13T07:23:49.241Z,16.25
2022-09-13T07:26:17.045Z,16.13
2022-09-13T07:28:47.302Z,15.98
2022-09-13T07:31:16.182Z,16.04
2022-09-13T07:33:43.820Z,16.17
2022-09-13T07:36:12.149Z,16.23
2022-09-13T07:38:40.448Z,16.29
2022-09-13T07:41:19.622Z,16.38
2022-09-13T07:43:47.086Z,16.26
2022-09-13T07:46:15.670Z,16.54
2022-09-13T07:48:44.121Z,16.57
2022-09-13T07:51:11.528Z,16.44
2022-09-13T07:53:39.489Z,16.47
2022-09-13T07:56:07.560Z,16.35
2022-09-13T07:58:36.513Z,16.32
2022-09-13T08:01:08.003Z,16.34
2022-09-13T08:03:35.953Z,16.47
2022-09-13T08:06:03.532Z,16.42
2022-09-13T08:08:31.218Z,16.29
2022-09-13T08:10:58.738Z,16.24
2022-09-13T08:13:26.622Z,16.26
2022-09-13T08:15:53.987Z,16.38
2022-09-13T08:18:21.896Z,16.36
2022-09-13T08:20:49.476Z,16.54
2022-09-13T08:23:16.967Z,16.53
2022-09-13T08:25:44.511Z,16.42
2022-09-13T08:28:15.693Z,16.45
2022-09-13T08:30:43.788Z,16.72
2022-09-13T08:33:11.467Z,16.62
2022-09-13T08:35:40.907Z,16.48
2022-09-13T08:38:08.315Z,16.64
2022-09-13T08:40:40.332Z,16.59
2022-09-13T08:43:07.896Z,16.63
2022-09-13T08:45:35.446Z,16.61
2022-09-13T08:48:04.382Z,16.59
2022-09-13T08:50:32.789Z,16.82
2022-09-13T08:53:12.464Z,16.76
2022-09-13T08:55:42.882Z,16.61
2022-09-13T08:58:13.580Z,16.61
2022-09-13T09:00:41.317Z,16.79
2022-09-13T09:03:12.443Z,16.90
2022-09-13T09:05:43.751Z,17.09
2022-09-13T09:08:12.533Z,17.13
2022-09-13T09:10:41.601Z,17.07
2022-09-13T09:13:10.335Z,17.11
2022-09-13T09:15:42.410Z,18.26
2022-09-13T09:18:13.922Z,18.37
2022-09-13T09:20:42.377Z,18.49
2022-09-13T09:23:30.411Z,18.43
2022-09-13T09:26:17.209Z,18.31
2022-09-13T09:28:48.036Z,18.00
2022-09-13T09:31:17.557Z,18.05
2022-09-13T09:34:08.125Z,18.34
2022-09-13T09:36:46.273Z,19.07
2022-09-13T09:39:14.331Z,18.72
2022-09-13T09:41:41.801Z,18.50
2022-09-13T09:44:22.061Z,18.70
2022-09-13T09:46:59.715Z,19.01
2022-09-13T09:49:48.022Z,19.22
2022-09-13T09:52:16.604Z,19.72
2022-09-13T09:54:44.461Z,19.84
2022-09-13T09:57:11.926Z,19.79
2022-09-13T09:59:39.933Z,19.47
2022-09-13T10:02:20.687Z,19.53
2022-09-13T10:04:55.434Z,19.81
2022-09-13T10:07:26.612Z,19.92
2022-09-13T10:10:01.542Z,20.27
2022-09-13T10:12:30.050Z,20.61
2022-09-13T10:15:11.026Z,20.97
2022-09-13T10:17:40.296Z,20.79
2022-09-13T10:20:14.309Z,20.82
2022-09-13T10:22:43.096Z,20.43
2022-09-13T10:25:23.683Z,20.37
2022-09-13T10:27:55.090Z,20.34
2022-09-13T10:30:31.917Z,20.04
2022-09-13T10:32:59.526Z,19.91
2022-09-13T10:35:27.192Z,19.79
2022-09-13T10:37:54.706Z,19.90
2022-09-13T10:40:34.194Z,19.84
2022-09-13T10:43:03.605Z,19.82
2022-09-13T10:45:32.429Z,19.47
2022-09-13T10:48:20.429Z,19.58
2022-09-13T10:51:07.374Z,19.85
2022-09-13T10:53:36.882Z,19.68
2022-09-13T10:56:04.770Z,19.66
2022-09-13T10:58:32.313Z,19.63
2022-09-13T11:00:59.964Z,19.23
2022-09-13T11:03:40.096Z,19.36
2022-09-13T11:06:20.989Z,19.26
2022-09-13T11:09:07.264Z,19.29
2022-09-13T11:11:51.219Z,19.20
2022-09-13T11:14:51.432Z,19.02
2022-09-13T11:17:45.292Z,19.04
2022-09-13T11:20:37.773Z,18.87
2022-09-13T11:23:10.829Z,19.07
2022-09-13T11:25:49.330Z,19.22
2022-09-13T11:28:26.115Z,19.11
2022-09-13T11:31:05.292Z,19.49
2022-09-13T11:33:48.200Z,19.45
2022-09-13T11:36:15.881Z,19.39
2022-09-13T11:39:01.947Z,19.51
2022-09-13T11:42:01.226Z,19.31
2022-09-13T11:44:28.662Z,19.49
2022-09-13T11:46:58.762Z,19.58
2022-09-13T11:49:38.198Z,19.79
2022-09-13T11:52:17.833Z,19.95
2022-09-13T11:54:51.396Z,19.66
2022-09-13T11:57:20.998Z,19.87
2022-09-13T11:59:53.685Z,19.82
2022-09-13T12:02:47.881Z,19.95
2022-09-13T12:05:24.256Z,20.14
2022-09-13T12:08:07.888Z,20.18
2022-09-13T12:10:38.980Z,20.16
2022-09-13T12:13:07.008Z,20.07
2022-09-13T12:15:38.544Z,20.12
2022-09-13T12:18:08.131Z,20.16
2022-09-13T12:20:39.906Z,20.42
2022-09-13T12:23:30.689Z,20.61
2022-09-13T12:25:59.707Z,20.48
2022-09-13T12:28:28.511Z,20.31
2022-09-13T12:30:57.107Z,20.75
2022-09-13T12:33:24.395Z,20.88
2022-09-13T12:36:11.049Z,20.64
2022-09-13T12:38:38.513Z,20.64
2022-09-13T12:41:12.165Z,20.37
2022-09-13T12:43:43.101Z,19.87
2022-09-13T12:46:19.324Z,19.50
2022-09-13T12:48:50.485Z,19.50
2022-09-13T12:51:31.342Z,19.43
2022-09-13T12:54:17.581Z,19.35
2022-09-13T12:56:47.990Z,19.33
2022-09-13T12:59:24.682Z,18.93
2022-09-13T13:01:52.473Z,18.82
2022-09-13T13:04:24.408Z,18.87
2022-09-13T13:06:56.372Z,18.88
2022-09-13T13:09:39.400Z,18.56
2022-09-13T13:12:06.776Z,18.30
2022-09-13T13:14:40.270Z,18.43
2022-09-13T13:17:28.125Z,18.46
2022-09-13T13:19:55.700Z,18.40
2022-09-13T13:22:42.213Z,18.47
2022-09-13T13:25:28.387Z,18.59
2022-09-13T13:27:55.810Z,18.51
2022-09-13T13:30:40.485Z,18.74
2022-09-13T13:33:13.980Z,18.69
2022-09-13T13:35:41.486Z,18.65
2022-09-13T13:38:24.611Z,18.31
2022-09-13T13:40:52.659Z,18.43
2022-09-13T13:43:32.854Z,18.47
2022-09-13T13:46:12.671Z,18.49
2022-09-13T13:48:40.655Z,18.25
2022-09-13T13:51:11.892Z,18.24
2022-09-13T13:53:39.705Z,18.58
2022-09-13T13:56:16.312Z,18.49
2022-09-13T13:58:46.534Z,18.38
2022-09-13T14:01:18.799Z,18.54
2022-09-13T14:03:58.073Z,18.47
2022-09-13T14:06:30.180Z,18.62
2022-09-13T14:11:36.181Z,18.34
2022-09-13T14:14:30.308Z,18.12
2022-09-13T14:17:08.049Z,18.24
2022-09-13T14:19:42.904Z,18.24
2022-09-13T14:22:17.361Z,18.19
2022-09-13T14:24:46.599Z,17.90
2022-09-13T14:27:26.678Z,18.04
2022-09-13T14:29:55.262Z,18.07
2022-09-13T14:32:23.217Z,18.30
2022-09-13T14:35:00.755Z,18.28
2022-09-13T14:37:35.378Z,18.42
2022-09-13T14:40:04.447Z,18.52
2022-09-13T14:42:58.151Z,18.34
2022-09-13T14:45:30.326Z,18.23
2022-09-13T14:48:06.756Z,18.03
2022-09-13T14:50:38.497Z,17.85
2022-09-13T14:53:06.988Z,18.10
2022-09-13T14:55:38.486Z,17.88
2022-09-13T14:58:06.433Z,17.56
2022-09-13T15:00:48.497Z,17.47
2022-09-13T15:03:16.255Z,17.81
2022-09-13T15:05:50.358Z,17.61
2022-09-13T15:08:27.927Z,17.78
2022-09-13T15:10:56.953Z,17.70
2022-09-13T15:13:24.796Z,17.69
2022-09-13T15:15:52.231Z,17.63
2022-09-13T15:18:25.816Z,17.28
2022-09-13T15:20:59.983Z,17.33
2022-09-13T15:23:37.989Z,17.34
2022-09-13T15:26:06.128Z,17.17
2022-09-13T15:28:34.390Z,17.15
2022-09-13T15:31:02.142Z,17.34
2022-09-13T15:33:34.407Z,17.17
2022-09-13T15:36:15.319Z,17.14
2022-09-13T15:38:58.520Z,17.06
2022-09-13T15:41:28.735Z,16.72
2022-09-13T15:43:56.136Z,16.71
2022-09-13T15:46:24.264Z,16.60
2022-09-13T15:48:52.788Z,16.59
2022-09-13T15:51:20.187Z,16.66
2022-09-13T15:53:47.567Z,16.59
2022-09-13T15:56:16.174Z,16.76
2022-09-13T15:58:43.486Z,16.50
2022-09-13T16:01:14.110Z,16.37
2022-09-13T16:03:41.678Z,16.45
2022-09-13T16:06:09.462Z,16.41
2022-09-13T16:08:37.912Z,16.40
2022-09-13T16:11:05.934Z,16.34
2022-09-13T16:13:34.444Z,16.31
2022-09-13T16:16:01.995Z,16.33
2022-09-13T16:18:29.611Z,16.32
2022-09-13T16:20:57.329Z,16.09
2022-09-13T16:23:24.716Z,16.10
2022-09-13T16:25:53.114Z,16.23
2022-09-13T16:28:21.287Z,16.06
2022-09-13T16:30:48.770Z,16.09
2022-09-13T16:33:16.147Z,15.86
2022-09-13T16:35:43.470Z,15.79
2022-09-13T16:38:10.939Z,15.55
2022-09-13T16:40:40.015Z,15.55
2022-09-13T16:43:07.689Z,15.53
2022-09-13T16:45:35.229Z,15.52
2022-09-13T16:48:03.220Z,15.51
2022-09-13T16:50:34.348Z,15.50
2022-09-13T16:53:02.493Z,15.53
2022-09-13T16:55:30.305Z,15.57
2022-09-13T16:57:57.787Z,15.27
2022-09-13T17:00:28.656Z,15.46
2022-09-13T17:02:56.704Z,15.34
2022-09-13T17:05:24.583Z,15.30
2022-09-13T17:07:52.187Z,15.31
2022-09-13T17:10:20.573Z,15.15
2022-09-13T17:12:50.210Z,15.19
2022-09-13T17:15:18.075Z,15.12
2022-09-13T17:17:45.487Z,15.01
2022-09-13T17:20:13.417Z,14.61
2022-09-13T17:22:40.812Z,14.64
2022-09-13T17:25:08.396Z,14.27
2022-09-13T17:27:36.644Z,14.41
2022-09-13T17:30:05.351Z,14.37
2022-09-13T17:32:32.916Z,14.41
2022-09-13T17:35:00.335Z,14.47
2022-09-13T17:37:27.695Z,14.41
2022-09-13T17:39:55.148Z,14.10
2022-09-13T17:42:23.601Z,14.33
2022-09-13T17:44:51.052Z,14.08
2022-09-13T17:47:18.475Z,13.96
2022-09-13T17:49:46.747Z,14.30
2022-09-13T17:52:14.663Z,14.32
2022-09-13T17:54:42.076Z,14.09
2022-09-13T17:57:11.986Z,14.24
2022-09-13T17:59:39.561Z,14.36
2022-09-13T18:02:06.942Z,14.14
2022-09-13T18:04:34.483Z,14.08
2022-09-13T18:07:01.854Z,14.30
2022-09-13T18:09:30.103Z,14.30
2022-09-13T18:11:57.458Z,14.28
2022-09-13T18:14:27.725Z,14.26
2022-09-13T18:16:57.418Z,14.18
2022-09-13T18:19:44.361Z,13.98
2022-09-13T18:22:12.205Z,14.06
2022-09-13T18:24:40.061Z,14.08
2022-09-13T18:27:07.489Z,13.96
2022-09-13T18:29:34.918Z,14.22
2022-09-13T18:32:02.432Z,14.15
2022-09-13T18:34:30.004Z,14.31
2022-09-13T18:36:57.303Z,14.30
2022-09-13T18:39:24.714Z,14.19
2022-09-13T18:41:51.964Z,14.10
2022-09-13T18:44:19.499Z,14.26
2022-09-13T18:46:47.519Z,14.42
2022-09-13T18:49:15.351Z,14.41
2022-09-13T18:51:43.810Z,14.38
2022-09-13T18:54:12.411Z,14.57
2022-09-13T18:56:41.552Z,14.60
2022-09-13T18:59:09.660Z,14.64
2022-09-13T19:01:38.508Z,14.63
2022-09-13T19:04:15.648Z,14.63
2022-09-13T19:06:47.794Z,14.51
2022-09-13T19:09:15.636Z,14.53
2022-09-13T19:11:47.637Z,14.36
2022-09-13T19:14:24.126Z,14.56
2022-09-13T19:16:52.364Z,14.67
2022-09-13T19:19:20.691Z,14.67
2022-09-13T19:21:48.051Z,14.64
2022-09-13T19:24:18.333Z,14.70
2022-09-13T19:26:46.726Z,14.49
2022-09-13T19:29:14.866Z,14.52
2022-09-13T19:31:44.309Z,14.62
2022-09-13T19:34:12.363Z,14.66
2022-09-13T19:36:43.243Z,14.64
2022-09-13T19:39:13.384Z,14.56
2022-09-13T19:41:41.043Z,14.56
2022-09-13T19:44:08.957Z,14.54
2022-09-13T19:46:37.951Z,14.49
2022-09-13T19:49:05.742Z,14.47
2022-09-13T19:51:34.786Z,14.53
2022-09-13T19:54:02.316Z,14.55
2022-09-13T19:56:30.812Z,14.37
2022-09-13T19:58:58.556Z,14.56
2022-09-13T20:01:26.668Z,14.48
2022-09-13T20:03:55.018Z,14.64
2022-09-13T20:06:25.176Z,14.66
2022-09-13T20:08:52.855Z,14.55
2022-09-13T20:11:20.991Z,14.57
2022-09-13T20:13:49.075Z,14.57
2022-09-13T20:16:17.829Z,14.53
2022-09-13T20:18:45.990Z,14.53
2022-09-13T20:21:13.481Z,14.52
2022-09-13T20:23:41.438Z,14.39
2022-09-13T20:26:21.890Z,14.42
2022-09-13T20:28:50.338Z,14.31
2022-09-13T20:31:18.332Z,14.26
2022-09-13T20:33:45.714Z,14.18
2022-09-13T20:36:13.706Z,14.24
2022-09-13T20:38:41.319Z,14.12
2022-09-13T20:41:13.220Z,13.95
2022-09-13T20:43:43.739Z,13.96
2022-09-13T20:46:12.415Z,13.98
2022-09-13T20:48:40.031Z,13.83
2022-09-13T20:51:09.014Z,13.88
2022-09-13T20:53:37.844Z,13.88
2022-09-13T20:56:11.332Z,13.89
2022-09-13T20:58:39.010Z,13.73
2022-09-13T21:01:20.137Z,13.64
2022-09-13T21:03:51.610Z,13.58
2022-09-13T21:06:19.914Z,13.52
2022-09-13T21:08:49.582Z,13.56
2022-09-13T21:11:20.840Z,13.62
2022-09-13T21:13:50.854Z,13.64
2022-09-13T21:16:19.586Z,13.59
2022-09-13T21:18:47.372Z,13.60
2022-09-13T21:21:15.969Z,13.53
2022-09-13T21:23:44.025Z,13.53
2022-09-13T21:26:12.655Z,13.64
2022-09-13T21:28:40.556Z,13.62
2022-09-13T21:31:11.795Z,13.55
2022-09-13T21:33:39.308Z,13.56
2022-09-13T21:36:07.029Z,13.54
2022-09-13T21:38:35.088Z,13.47
2022-09-13T21:41:10.561Z,13.50
2022-09-13T21:43:38.677Z,13.60
2022-09-13T21:46:07.233Z,13.67
2022-09-13T21:48:34.960Z,13.67
2022-09-13T21:51:05.468Z,13.69
2022-09-13T21:53:37.023Z,13.68
2022-09-13T21:56:08.184Z,13.65
2022-09-13T21:58:36.308Z,13.74
2022-09-13T22:01:04.489Z,13.69
2022-09-13T22:03:34.360Z,13.73
2022-09-13T22:06:01.800Z,13.72
2022-09-13T22:08:35.481Z,13.64
2022-09-13T22:11:06.018Z,13.70
2022-09-13T22:13:37.207Z,13.55
2022-09-13T22:16:08.056Z,13.39
2022-09-13T22:18:36.201Z,13.39
2022-09-13T22:21:06.996Z,13.35
2022-09-13T22:23:34.911Z,13.37
2022-09-13T22:26:08.819Z,13.15
2022-09-13T22:28:36.138Z,13.39
2022-09-13T22:31:07.347Z,13.33
2022-09-13T22:33:35.670Z,13.24
2022-09-13T22:36:07.353Z,13.17
2022-09-13T22:38:35.132Z,13.48
2022-09-13T22:41:06.726Z,13.59
2022-09-13T22:43:34.514Z,13.68
2022-09-13T22:46:05.894Z,13.74
2022-09-13T22:48:33.797Z,13.72
2022-09-13T22:51:01.191Z,13.50
2022-09-13T22:53:28.707Z,13.37
2022-09-13T22:55:56.064Z,13.40
2022-09-13T22:58:23.477Z,13.26
2022-09-13T23:00:50.771Z,13.31
2022-09-13T23:03:18.160Z,13.43
2022-09-13T23:05:52.593Z,13.45
2022-09-13T23:08:20.085Z,13.59
2022-09-13T23:10:47.438Z,13.42
2022-09-13T23:13:15.209Z,13.69
2022-09-13T23:15:42.736Z,13.56
2022-09-13T23:18:10.301Z,13.62
2022-09-13T23:20:37.746Z,13.46
2022-09-13T23:23:05.398Z,13.49
2022-09-13T23:25:33.940Z,13.51
2022-09-13T23:28:01.532Z,13.35
2022-09-13T23:30:28.837Z,13.58
2022-09-13T23:32:56.338Z,13.60
2022-09-13T23:35:23.744Z,13.72
2022-09-13T23:37:51.086Z,13.64
2022-09-13T23:40:18.432Z,13.53
2022-09-13T23:42:45.782Z,13.68
2022-09-13T23:45:13.139Z,13.63
2022-09-13T23:47:40.556Z,13.60
2022-09-13T23:50:08.037Z,13.61
2022-09-13T23:52:36.577Z,13.67
2022-09-13T23:55:04.278Z,13.63
2022-09-13T23:57:31.774Z,13.70
2022-09-13T23:59:59.175Z,13.62
